Ellington — 9V2908 — position and weather

sailwx.info

Track history (hours):
 
Tides and Currents Weather Stations Pressure Air Temp Water Temp Dewpoint Dewpoint Depression Visibility Wind Speed Wind Dir Waves Ship Positions

Ellington

Last reported at 2017-Nov-07 02:58 UTC. Time now 2017-Nov-22 05:39 UTC.
Position N 01°18' E 103°20'.
Warning: this ship's position is 15 days out of date.

Length 159 m; draft 7 m.

Type: Tanker. MMSI: 563000100.

Date/timePositionNaut miles runAvg speedWind from/ knotsBaromVisibWave heightAir tempDewpointWater temp
2017-Nov-07 02:58N 01°18' E 103°20'613.4
2017-Nov-07 02:30N 01°14' E 103°25'714.5
2017-Nov-07 02:00N 01°12' E 103°32'714.1
2017-Nov-07 01:30N 01°12' E 103°39'2 4.4
2017-Nov-07 01:00N 01°12' E 103°41'0 0.1
2017-Nov-07 00:30N 01°12' E 103°41'0 0.0
2017-Nov-06 23:57N 01°12' E 103°41'0 0.0
2017-Nov-06 23:27N 01°12' E 103°41'0 0.1
2017-Nov-06 22:57N 01°12' E 103°41'0 0.1
2017-Nov-06 22:27N 01°12' E 103°41'0 0.1
2017-Nov-06 21:51N 01°12' E 103°41'0 0.3
2017-Nov-06 21:30N 01°12' E 103°41'0 0.1
2017-Nov-06 20:57N 01°12' E 103°41'0 0.1
2017-Nov-06 20:30N 01°12' E 103°41'  
2017-Oct-31 15:22N 30°53' E 123°16'38 2.4
2017-Oct-30 23:16N 30°59' E 122°32'312.9
2017-Oct-30 23:00N 30°60' E 122°28'713.3
2017-Oct-30 22:30N 31°01' E 122°21'612.1
2017-Oct-30 22:00N 31°02' E 122°14'5 9.6
2017-Oct-30 21:30N 31°03' E 122°08'510.8
2017-Oct-30 21:00N 31°04' E 122°02'510.1
2017-Oct-30 20:30N 31°07' E 121°57'713.5
2017-Oct-30 20:00N 31°11' E 121°51'815.0
2017-Oct-30 19:30N 31°16' E 121°45'612.0
2017-Oct-30 19:00N 31°21' E 121°40'611.4
2017-Oct-30 18:31N 31°23' E 121°34'510.4
2017-Oct-30 18:00N 31°26' E 121°29'510.0
2017-Oct-30 17:31N 31°30' E 121°25'5 9.2
2017-Oct-30 17:00N 31°32' E 121°20'510.9
2017-Oct-30 16:30N 31°37' E 121°16'611.3
2017-Oct-30 16:01N 31°40' E 121°11'713.3
2017-Oct-30 15:31N 31°45' E 121°05'812.9
2017-Oct-30 14:53N 31°47' E 120°56'2510.9
2017-Oct-30 12:38N 32°01' E 120°33'213.7
2017-Oct-30 12:29N 32°02' E 120°31'  
Track history (hours):
 
Tides and Currents Weather Stations Pressure Air Temp Water Temp Dewpoint Dewpoint Depression Visibility Wind Speed Wind Dir Waves Ship Positions

Ellington

Last reported at 2017-Nov-07 02:58 UTC. Time now 2017-Nov-22 05:39 UTC.
Position N 01°18' E 103°20'.
Warning: this ship's position is 15 days out of date.

Length 159 m; draft 7 m.

Type: Tanker. MMSI: 563000100.

Date/timePositionNaut miles runAvg speedWind from/ knotsBaromVisibWave heightAir tempDewpointWater temp
2017-Nov-07 02:58N 01°18' E 103°20'613.4
2017-Nov-07 02:30N 01°14' E 103°25'714.5
2017-Nov-07 02:00N 01°12' E 103°32'714.1
2017-Nov-07 01:30N 01°12' E 103°39'2 4.4
2017-Nov-07 01:00N 01°12' E 103°41'0 0.1
2017-Nov-07 00:30N 01°12' E 103°41'0 0.0
2017-Nov-06 23:57N 01°12' E 103°41'0 0.0
2017-Nov-06 23:27N 01°12' E 103°41'0 0.1
2017-Nov-06 22:57N 01°12' E 103°41'0 0.1
2017-Nov-06 22:27N 01°12' E 103°41'0 0.1
2017-Nov-06 21:51N 01°12' E 103°41'0 0.3
2017-Nov-06 21:30N 01°12' E 103°41'0 0.1
2017-Nov-06 20:57N 01°12' E 103°41'0 0.1
2017-Nov-06 20:30N 01°12' E 103°41'  
2017-Oct-31 15:22N 30°53' E 123°16'38 2.4
2017-Oct-30 23:16N 30°59' E 122°32'312.9
2017-Oct-30 23:00N 30°60' E 122°28'713.3
2017-Oct-30 22:30N 31°01' E 122°21'612.1
2017-Oct-30 22:00N 31°02' E 122°14'5 9.6
2017-Oct-30 21:30N 31°03' E 122°08'510.8
2017-Oct-30 21:00N 31°04' E 122°02'510.1
2017-Oct-30 20:30N 31°07' E 121°57'713.5
2017-Oct-30 20:00N 31°11' E 121°51'815.0
2017-Oct-30 19:30N 31°16' E 121°45'612.0
2017-Oct-30 19:00N 31°21' E 121°40'611.4
2017-Oct-30 18:31N 31°23' E 121°34'510.4
2017-Oct-30 18:00N 31°26' E 121°29'510.0
2017-Oct-30 17:31N 31°30' E 121°25'5 9.2
2017-Oct-30 17:00N 31°32' E 121°20'510.9
2017-Oct-30 16:30N 31°37' E 121°16'611.3
2017-Oct-30 16:01N 31°40' E 121°11'713.3
2017-Oct-30 15:31N 31°45' E 121°05'812.9
2017-Oct-30 14:53N 31°47' E 120°56'2510.9
2017-Oct-30 12:38N 32°01' E 120°33'213.7
2017-Oct-30 12:29N 32°02' E 120°31'  

Dump ship's entire track history